Time;durP1;ratioP1;P1;durP2;ratioP2;P2;SDS_P1;SDS_P2;PMS_P1;PMS_P2;Temp;Humidity;BMP_temperature;BMP_pressure;BME280_temperature;BME280_humidity;BME280_pressure;Samples;Min_cycle;Max_cycle;Signal;HPM_P1;HPM_P2
2023/09/22 00:01:31;;;;;;;;;;;;;;;;;;5104938;28;1148;-64
2023/09/22 00:03:57;;;;;;;;;;;;;;;;;;5113778;28;910;-64
2023/09/22 00:06:22;;;;;;;;;;;;;;;;;;5113155;28;1195;-64
2023/09/22 00:08:48;;;;;;;;;;;;;;;;;;5114363;28;902;-65
2023/09/22 00:11:13;;;;;;;;;;;;;;;;;;5113762;28;899;-65
2023/09/22 00:13:39;;;;;;;;;;;;;;;;;;5114350;28;883;-65
2023/09/22 00:16:04;;;;;;;;;;;;;;;;;;5113868;28;870;-65
2023/09/22 00:18:30;;;;;;;;;;;;;;;;;;5113957;28;1897;-65
2023/09/22 00:20:55;;;;;;;;;;;;;;;;;;5113634;28;1227;-65
2023/09/22 00:23:21;;;;;;;;;;;;;;;;;;5113279;28;1257;-65
2023/09/22 00:25:46;;;;;;;;;;;;;;;;;;5106909;27;1159;-64
2023/09/22 00:28:11;;;;;;;;;;;;;;;;;;5099776;28;1154;-64
2023/09/22 00:30:36;;;;;;;;;;;;;;;;;;5098394;28;1319;-64
2023/09/22 00:33:02;;;;;;;;;;;;;;;;;;5096062;28;1162;-64
2023/09/22 00:35:28;;;;;;;;;;;;;;;;;;5111060;28;1194;-65
2023/09/22 00:37:53;;;;;;;;;;;;;;;;;;5094058;28;1902;-63
2023/09/22 00:40:19;;;;;;;;;;;;;;;;;;5096341;28;1155;-64
2023/09/22 00:42:45;;;;;;;;;;;;;;;;;;5072655;28;1615;-64
2023/09/22 00:45:10;;;;;;;;;;;;;;;;;;5092217;28;1215;-64
2023/09/22 00:47:36;;;;;;;;;;;;;;;;;;5093583;28;789;-64
2023/09/22 00:50:02;;;;;;;;;;;;;;;;;;5093239;28;812;-64
2023/09/22 00:52:27;;;;;;;;;;;;;;;;;;5093523;28;844;-64
2023/09/22 00:54:53;;;;;;;;;;;;;;;;;;5093571;28;1114;-64
2023/09/22 00:57:19;;;;;;;;;;;;;;;;;;5093589;28;1042;-64
2023/09/22 00:59:46;;;;;;;;;;;;;;;;;;5091986;28;1898;-64
2023/09/22 01:02:11;;;;;;;;;;;;;;;;;;5092291;28;836;-65
2023/09/22 01:04:36;;;;;;;;;;;;;;;;;;5092950;28;889;-65
2023/09/22 01:07:02;;;;;;;;;;;;;;;;;;5092198;28;911;-65
2023/09/22 01:09:27;;;;;;;;;;;;;;;;;;5092863;28;970;-65
2023/09/22 01:11:53;;;;;;;;;;;;;;;;;;5091803;28;832;-65
2023/09/22 01:14:18;;;;;;;;;;;;;;;;;;5092086;28;923;-65
2023/09/22 01:16:44;;;;;;;;;;;;;;;;;;5092753;28;868;-65
2023/09/22 01:19:13;;;;;;;;;;;;;;;;;;5092174;28;1983;-65
2023/09/22 01:21:38;;;;;;;;;;;;;;;;;;5092747;28;1418;-65
2023/09/22 01:24:04;;;;;;;;;;;;;;;;;;5092091;28;907;-64
2023/09/22 01:26:29;;;;;;;;;;;;;;;;;;5093001;28;892;-65
2023/09/22 01:28:55;;;;;;;;;;;;;;;;;;5092127;28;903;-65
2023/09/22 01:31:20;;;;;;;;;;;;;;;;;;5091968;28;821;-66
2023/09/22 01:33:46;;;;;;;;;;;;;;;;;;5093510;28;856;-65
2023/09/22 01:36:12;;;;;;;;;;;;;;;;;;5093161;28;1008;-64
2023/09/22 01:38:37;;;;;;;;;;;;;;;;;;5091688;28;1983;-64
2023/09/22 01:41:03;;;;;;;;;;;;;;;;;;5092475;28;993;-64
2023/09/22 01:43:28;;;;;;;;;;;;;;;;;;5093750;28;1015;-65
2023/09/22 01:45:53;;;;;;;;;;;;;;;;;;5091970;28;864;-64
2023/09/22 01:48:18;;;;;;;;;;;;;;;;;;5093405;28;1027;-64
2023/09/22 01:50:44;;;;;;;;;;;;;;;;;;5091723;28;833;-64
2023/09/22 01:53:09;;;;;;;;;;;;;;;;;;5092764;28;890;-64
2023/09/22 01:55:35;;;;;;;;;;;;;;;;;;5092591;28;828;-65
2023/09/22 01:58:00;;;;;;;;;;;;;;;;;;5092125;28;1965;-65
2023/09/22 02:00:26;;;;;;;;;;;;;;;;;;5092192;28;978;-65
2023/09/22 02:02:52;;;;;;;;;;;;;;;;;;5091997;28;845;-65
2023/09/22 02:05:17;;;;;;;;;;;;;;;;;;5091394;28;1083;-65
2023/09/22 02:07:42;;;;;;;;;;;;;;;;;;5108871;28;1140;-65
2023/09/22 02:10:09;;;;;;;;;;;;;;;;;;5111551;28;911;-65
2023/09/22 02:12:35;;;;;;;;;;;;;;;;;;5112395;28;887;-65
2023/09/22 02:15:01;;;;;;;;;;;;;;;;;;5111781;28;946;-65
2023/09/22 02:17:27;;;;;;;;;;;;;;;;;;5112591;28;1894;-65
2023/09/22 02:19:53;;;;;;;;;;;;;;;;;;5111026;28;1241;-64
2023/09/22 02:22:18;;;;;;;;;;;;;;;;;;5111116;28;1100;-64
2023/09/22 02:24:43;;;;;;;;;;;;;;;;;;5110839;28;1052;-64
2023/09/22 02:27:08;;;;;;;;;;;;;;;;;;5110010;28;1186;-63
2023/09/22 02:29:34;;;;;;;;;;;;;;;;;;5111915;28;943;-64
2023/09/22 02:31:59;;;;;;;;;;;;;;;;;;5111753;28;856;-64
2023/09/22 02:34:25;;;;;;;;;;;;;;;;;;5110452;28;1360;-64
2023/09/22 02:36:50;;;;;;;;;;;;;;;;;;5111181;28;908;-64
2023/09/22 02:39:16;;;;;;;;;;;;;;;;;;5111143;28;1981;-65
2023/09/22 02:41:41;;;;;;;;;;;;;;;;;;5111361;28;761;-64
2023/09/22 02:44:08;;;;;;;;;;;;;;;;;;5111173;28;978;-64
2023/09/22 02:46:34;;;;;;;;;;;;;;;;;;5111864;28;903;-64
2023/09/22 02:48:59;;;;;;;;;;;;;;;;;;5111173;28;872;-64
2023/09/22 02:51:25;;;;;;;;;;;;;;;;;;5111792;28;999;-64
2023/09/22 02:53:50;;;;;;;;;;;;;;;;;;5111403;28;906;-64
2023/09/22 02:56:16;;;;;;;;;;;;;;;;;;5109527;28;1371;-64
2023/09/22 02:58:41;;;;;;;;;;;;;;;;;;5111599;28;1964;-64
2023/09/22 03:01:10;;;;;;;;;;;;;;;;;;5110007;28;872;-64
2023/09/22 03:03:36;;;;;;;;;;;;;;;;;;5111518;28;877;-64
2023/09/22 03:06:01;;;;;;;;;;;;;;;;;;5111394;28;905;-64
2023/09/22 03:08:26;;;;;;;;;;;;;;;;;;5110104;28;952;-64
2023/09/22 03:10:52;;;;;;;;;;;;;;;;;;5111332;28;817;-64
2023/09/22 03:13:17;;;;;;;;;;;;;;;;;;5111129;28;868;-64
2023/09/22 03:15:42;;;;;;;;;;;;;;;;;;5110962;28;928;-64
2023/09/22 03:18:08;;;;;;;;;;;;;;;;;;5111658;28;1957;-65
2023/09/22 03:20:33;;;;;;;;;;;;;;;;;;5114925;28;1060;-65
2023/09/22 03:22:58;;;;;;;;;;;;;;;;;;5115849;28;939;-64
2023/09/22 03:25:24;;;;;;;;;;;;;;;;;;5116653;28;939;-64
2023/09/22 03:27:49;;;;;;;;;;;;;;;;;;5114792;28;1428;-64
2023/09/22 03:30:15;;;;;;;;;;;;;;;;;;5116589;28;879;-64
2023/09/22 03:32:40;;;;;;;;;;;;;;;;;;5115611;28;1171;-64
2023/09/22 03:35:07;;;;;;;;;;;;;;;;;;5115992;28;816;-64
2023/09/22 03:37:32;;;;;;;;;;;;;;;;;;5115601;28;1913;-64
2023/09/22 03:39:58;;;;;;;;;;;;;;;;;;5115110;28;876;-64
2023/09/22 03:42:24;;;;;;;;;;;;;;;;;;5115880;28;990;-64
2023/09/22 03:44:50;;;;;;;;;;;;;;;;;;5115252;28;838;-64
2023/09/22 03:47:15;;;;;;;;;;;;;;;;;;5114662;28;1093;-64
2023/09/22 03:49:40;;;;;;;;;;;;;;;;;;5114942;28;900;-65
2023/09/22 03:52:05;;;;;;;;;;;;;;;;;;5114210;28;827;-65
2023/09/22 03:54:31;;;;;;;;;;;;;;;;;;5114252;28;1371;-65
2023/09/22 03:56:56;;;;;;;;;;;;;;;;;;5113362;28;904;-64
2023/09/22 03:59:22;;;;;;;;;;;;;;;;;;5113153;28;1972;-65
2023/09/22 04:01:50;;;;;;;;;;;;;;;;;;5114361;28;896;-64
2023/09/22 04:04:16;;;;;;;;;;;;;;;;;;5114006;28;1341;-64
2023/09/22 04:06:41;;;;;;;;;;;;;;;;;;5114481;28;870;-64
2023/09/22 04:09:07;;;;;;;;;;;;;;;;;;5114315;28;896;-64
2023/09/22 04:11:33;;;;;;;;;;;;;;;;;;5114479;28;820;-64
2023/09/22 04:13:59;;;;;;;;;;;;;;;;;;5095796;28;1218;-65
2023/09/22 04:16:24;;;;;;;;;;;;;;;;;;5112943;28;1166;-65
2023/09/22 04:18:54;;;;;;;;;;;;;;;;;;5114263;28;1909;-65
2023/09/22 04:21:21;;;;;;;;;;;;;;;;;;5113238;28;1293;-64
2023/09/22 04:23:50;;;;;;;;;;;;;;;;;;5114545;28;891;-64
2023/09/22 04:26:16;;;;;;;;;;;;;;;;;;5113230;28;916;-64
2023/09/22 04:28:43;;;;;;;;;;;;;;;;;;5114232;28;820;-64
2023/09/22 04:31:12;;;;;;;;;;;;;;;;;;5113676;28;945;-65
2023/09/22 04:33:37;;;;;;;;;;;;;;;;;;5114423;28;1056;-64
2023/09/22 04:36:03;;;;;;;;;;;;;;;;;;5112486;28;899;-64
2023/09/22 04:38:28;;;;;;;;;;;;;;;;;;5114021;28;1953;-65
2023/09/22 04:40:57;;;;;;;;;;;;;;;;;;5114455;28;789;-65
2023/09/22 04:43:23;;;;;;;;;;;;;;;;;;5112982;28;969;-65
2023/09/22 04:45:49;;;;;;;;;;;;;;;;;;5113293;28;1185;-65
2023/09/22 04:48:14;;;;;;;;;;;;;;;;;;5114223;28;871;-65
2023/09/22 04:50:40;;;;;;;;;;;;;;;;;;5109564;28;1416;-65
2023/09/22 04:53:05;;;;;;;;;;;;;;;;;;5110193;28;1075;-66
2023/09/22 04:55:35;;;;;;;;;;;;;;;;;;5095479;28;1135;-66
2023/09/22 04:58:01;;;;;;;;;;;;;;;;;;5093367;28;1951;-65
2023/09/22 05:00:27;;;;;;;;;;;;;;;;;;5092371;28;904;-66
2023/09/22 05:02:52;;;;;;;;;;;;;;;;;;5092269;28;1100;-66
2023/09/22 05:05:18;;;;;;;;;;;;;;;;;;5094270;28;1018;-66
2023/09/22 05:07:44;;;;;;;;;;;;;;;;;;5091549;28;1210;-66
2023/09/22 05:10:09;;;;;;;;;;;;;;;;;;5093417;28;899;-66
2023/09/22 05:12:35;;;;;;;;;;;;;;;;;;5093340;28;924;-66
2023/09/22 05:15:01;;;;;;;;;;;;;;;;;;5092078;28;888;-65
2023/09/22 05:17:28;;;;;;;;;;;;;;;;;;5092691;28;1296;-65
2023/09/22 05:19:53;;;;;;;;;;;;;;;;;;5092903;28;1980;-66
2023/09/22 05:22:20;;;;;;;;;;;;;;;;;;5092970;28;1207;-66
2023/09/22 05:24:45;;;;;;;;;;;;;;;;;;5093824;28;832;-65
2023/09/22 05:27:11;;;;;;;;;;;;;;;;;;5092963;28;872;-65
2023/09/22 05:29:37;;;;;;;;;;;;;;;;;;5093263;28;998;-66
2023/09/22 05:32:02;;;;;;;;;;;;;;;;;;5092942;28;1003;-66
2023/09/22 05:34:28;;;;;;;;;;;;;;;;;;5092489;28;945;-66
2023/09/22 05:36:53;;;;;;;;;;;;;;;;;;5091212;28;966;-66
2023/09/22 05:39:18;;;;;;;;;;;;;;;;;;5074042;28;1989;-66
2023/09/22 05:41:50;;;;;;;;;;;;;;;;;;5091571;28;839;-66
2023/09/22 05:44:18;;;;;;;;;;;;;;;;;;5092326;28;919;-67
2023/09/22 05:46:43;;;;;;;;;;;;;;;;;;5074230;28;887;-66
2023/09/22 05:49:14;;;;;;;;;;;;;;;;;;5092180;28;939;-66
2023/09/22 05:51:39;;;;;;;;;;;;;;;;;;5090414;28;1255;-66
2023/09/22 05:54:05;;;;;;;;;;;;;;;;;;5090520;28;995;-65
2023/09/22 05:56:31;;;;;;;;;;;;;;;;;;5091734;28;931;-66
2023/09/22 05:58:56;;;;;;;;;;;;;;;;;;5092180;28;1918;-65
2023/09/22 06:01:22;;;;;;;;;;;;;;;;;;5090816;28;860;-66
2023/09/22 06:03:47;;;;;;;;;;;;;;;;;;5090453;28;984;-66
2023/09/22 06:06:13;;;;;;;;;;;;;;;;;;5090889;28;1144;-66
2023/09/22 06:08:39;;;;;;;;;;;;;;;;;;5091723;28;820;-66
2023/09/22 06:11:05;;;;;;;;;;;;;;;;;;5090761;28;1207;-66
2023/09/22 06:13:30;;;;;;;;;;;;;;;;;;5092031;28;872;-66
2023/09/22 06:15:56;;;;;;;;;;;;;;;;;;5092092;28;868;-66
2023/09/22 06:18:22;;;;;;;;;;;;;;;;;;5091333;28;1955;-67
2023/09/22 06:20:47;;;;;;;;;;;;;;;;;;5091772;28;1267;-66
2023/09/22 06:23:12;;;;;;;;;;;;;;;;;;5090535;28;860;-66
2023/09/22 06:25:37;;;;;;;;;;;;;;;;;;5090644;28;845;-66
2023/09/22 06:28:05;;;;;;;;;;;;;;;;;;5090503;28;1046;-66
2023/09/22 06:30:31;;;;;;;;;;;;;;;;;;5090524;28;864;-66
2023/09/22 06:32:56;;;;;;;;;;;;;;;;;;5091927;28;911;-66
2023/09/22 06:35:22;;;;;;;;;;;;;;;;;;5091717;28;841;-66
2023/09/22 06:37:49;;;;;;;;;;;;;;;;;;5090541;28;1897;-67
2023/09/22 06:40:15;;;;;;;;;;;;;;;;;;5091815;28;907;-66
2023/09/22 06:42:41;;;;;;;;;;;;;;;;;;5090698;28;1314;-67
2023/09/22 06:45:10;;;;;;;;;;;;;;;;;;5091714;28;816;-66
2023/09/22 06:47:36;;;;;;;;;;;;;;;;;;5091876;28;864;-66
2023/09/22 06:50:05;;;;;;;;;;;;;;;;;;5090658;28;868;-65
2023/09/22 06:52:31;;;;;;;;;;;;;;;;;;5090380;28;1167;-65
2023/09/22 06:54:56;;;;;;;;;;;;;;;;;;5095615;28;904;-65
2023/09/22 06:57:21;;;;;;;;;;;;;;;;;;5095581;28;887;-66
2023/09/22 06:59:50;;;;;;;;;;;;;;;;;;5096076;28;1882;-66
2023/09/22 07:02:15;;;;;;;;;;;;;;;;;;5093670;28;1250;-66
2023/09/22 07:04:40;;;;;;;;;;;;;;;;;;5113828;28;1175;-65
2023/09/22 07:07:06;;;;;;;;;;;;;;;;;;5116290;28;880;-66
2023/09/22 07:09:31;;;;;;;;;;;;;;;;;;5115807;28;940;-66
2023/09/22 07:11:57;;;;;;;;;;;;;;;;;;5116382;28;920;-66
2023/09/22 07:14:22;;;;;;;;;;;;;;;;;;5114321;28;1480;-66
2023/09/22 07:16:48;;;;;;;;;;;;;;;;;;5097177;28;952;-65
2023/09/22 07:19:13;;;;;;;;;;;;;;;;;;5115057;28;1962;-65
2023/09/22 07:21:39;;;;;;;;;;;;;;;;;;5114875;28;1118;-66
2023/09/22 07:24:05;;;;;;;;;;;;;;;;;;5115607;28;864;-65
2023/09/22 07:26:31;;;;;;;;;;;;;;;;;;5115179;28;832;-65
2023/09/22 07:28:58;;;;;;;;;;;;;;;;;;5114327;28;1337;-66
2023/09/22 07:31:30;;;;;;;;;;;;;;;;;;5115976;28;832;-65
2023/09/22 07:33:55;;;;;;;;;;;;;;;;;;5115822;28;855;-65
2023/09/22 07:36:21;;;;;;;;;;;;;;;;;;5113692;28;916;-65
2023/09/22 07:38:46;;;;;;;;;;;;;;;;;;5114993;28;1909;-65
2023/09/22 07:41:11;;;;;;;;;;;;;;;;;;5113839;28;1203;-64
2023/09/22 07:43:37;;;;;;;;;;;;;;;;;;5114956;28;812;-65
2023/09/22 07:46:04;;;;;;;;;;;;;;;;;;5113973;28;1135;-66
2023/09/22 07:48:30;;;;;;;;;;;;;;;;;;5114029;28;1362;-65
2023/09/22 07:50:55;;;;;;;;;;;;;;;;;;5114681;28;1485;-66
2023/09/22 07:53:21;;;;;;;;;;;;;;;;;;5115995;28;904;-66
2023/09/22 07:55:47;;;;;;;;;;;;;;;;;;5115567;28;839;-66
2023/09/22 07:58:12;;;;;;;;;;;;;;;;;;5114968;28;1940;-65
2023/09/22 08:00:42;;;;;;;;;;;;;;;;;;5115814;28;824;-66
2023/09/22 08:03:09;;;;;;;;;;;;;;;;;;5115539;28;843;-65
2023/09/22 08:05:34;;;;;;;;;;;;;;;;;;5112322;28;1511;-66
2023/09/22 08:07:59;;;;;;;;;;;;;;;;;;5114691;28;860;-66
2023/09/22 08:10:25;;;;;;;;;;;;;;;;;;5115377;28;784;-66
2023/09/22 08:12:50;;;;;;;;;;;;;;;;;;5114987;28;852;-66
2023/09/22 08:15:15;;;;;;;;;;;;;;;;;;5114899;28;855;-66
2023/09/22 08:17:42;;;;;;;;;;;;;;;;;;5115284;28;1910;-65
2023/09/22 08:20:12;;;;;;;;;;;;;;;;;;5114724;28;875;-66
2023/09/22 08:22:38;;;;;;;;;;;;;;;;;;5114830;28;1194;-66
2023/09/22 08:25:08;;;;;;;;;;;;;;;;;;5115191;27;812;-66
2023/09/22 08:27:33;;;;;;;;;;;;;;;;;;5114634;28;808;-66
2023/09/22 08:29:59;;;;;;;;;;;;;;;;;;5113527;28;824;-66
2023/09/22 08:32:25;;;;;;;;;;;;;;;;;;5114773;28;820;-66
2023/09/22 08:34:50;;;;;;;;;;;;;;;;;;5114763;28;870;-66
2023/09/22 08:37:16;;;;;;;;;;;;;;;;;;5109372;28;1238;-66
2023/09/22 08:39:42;;;;;;;;;;;;;;;;;;5094260;28;1968;-66
2023/09/22 08:42:07;;;;;;;;;;;;;;;;;;5107435;28;1311;-66
2023/09/22 08:44:33;;;;;;;;;;;;;;;;;;5111619;28;832;-66
2023/09/22 08:46:58;;;;;;;;;;;;;;;;;;5112219;28;1026;-66
2023/09/22 08:49:26;;;;;;;;;;;;;;;;;;5112598;28;919;-66
2023/09/22 08:51:51;;;;;;;;;;;;;;;;;;5112495;28;820;-66
2023/09/22 08:54:17;;;;;;;;;;;;;;;;;;5112336;28;982;-67
2023/09/22 08:56:43;;;;;;;;;;;;;;;;;;5111767;28;824;-66
2023/09/22 08:59:09;;;;;;;;;;;;;;;;;;5113118;28;1902;-66
2023/09/22 09:01:34;;;;;;;;;;;;;;;;;;5112340;28;1040;-66
2023/09/22 09:04:20;;;;;;;;;;;;;;;;;;5113310;28;919;-66
2023/09/22 09:06:46;;;;;;;;;;;;;;;;;;5113164;28;1139;-65
2023/09/22 09:09:12;;;;;;;;;;;;;;;;;;5094882;28;1558;-65
2023/09/22 09:11:38;;;;;;;;;;;;;;;;;;5113614;28;985;-64
2023/09/22 09:14:28;;;;;;;;;;;;;;;;;;5111623;28;1590;-66
2023/09/22 09:16:53;;;;;;;;;;;;;;;;;;5113312;27;836;-65
2023/09/22 09:19:20;;;;;;;;;;;;;;;;;;5112786;28;1967;-66
2023/09/22 09:22:05;;;;;;;;;;;;;;;;;;5113003;28;1489;-65
2023/09/22 09:24:31;;;;;;;;;;;;;;;;;;5112349;28;887;-66
2023/09/22 09:26:57;;;;;;;;;;;;;;;;;;5113652;28;831;-65
2023/09/22 09:29:26;;;;;;;;;;;;;;;;;;5111934;28;1218;-65
2023/09/22 09:31:51;;;;;;;;;;;;;;;;;;5113673;28;990;-66
2023/09/22 09:34:17;;;;;;;;;;;;;;;;;;5113382;28;837;-67
2023/09/22 09:36:42;;;;;;;;;;;;;;;;;;5113692;28;919;-65
2023/09/22 09:39:08;;;;;;;;;;;;;;;;;;5113475;27;1981;-66
2023/09/22 09:41:34;;;;;;;;;;;;;;;;;;5114169;28;879;-65
2023/09/22 09:44:01;;;;;;;;;;;;;;;;;;5112362;28;1271;-66
2023/09/22 09:46:26;;;;;;;;;;;;;;;;;;5113129;28;1069;-66
2023/09/22 09:48:55;;;;;;;;;;;;;;;;;;5112636;28;979;-65
2023/09/22 09:51:22;;;;;;;;;;;;;;;;;;5112588;28;832;-66
2023/09/22 09:53:51;;;;;;;;;;;;;;;;;;5112782;28;827;-65
2023/09/22 09:56:17;;;;;;;;;;;;;;;;;;5112701;28;835;-65
2023/09/22 09:58:45;;;;;;;;;;;;;;;;;;5113210;28;1969;-66
2023/09/22 10:01:10;;;;;;;;;;;;;;;;;;5113014;28;856;-66
2023/09/22 10:03:38;;;;;;;;;;;;;;;;;;5112358;28;852;-66
2023/09/22 10:06:04;;;;;;;;;;;;;;;;;;5112565;28;930;-65
2023/09/22 10:08:29;;;;;;;;;;;;;;;;;;5112919;28;804;-66
2023/09/22 10:11:03;;;;;;;;;;;;;;;;;;5112622;28;998;-66
2023/09/22 10:13:29;;;;;;;;;;;;;;;;;;5112273;28;796;-66
2023/09/22 10:16:00;;;;;;;;;;;;;;;;;;5112618;28;875;-65
2023/09/22 10:18:47;;;;;;;;;;;;;;;;;;5111728;28;1942;-66
2023/09/22 10:21:31;;;;;;;;;;;;;;;;;;5110353;28;1306;-65
2023/09/22 10:24:16;;;;;;;;;;;;;;;;;;5111077;28;1013;-66
2023/09/22 10:26:56;;;;;;;;;;;;;;;;;;5110636;28;1123;-66
2023/09/22 10:29:34;;;;;;;;;;;;;;;;;;5111572;28;915;-66
2023/09/22 10:32:27;;;;;;;;;;;;;;;;;;5110443;28;1304;-66
2023/09/22 10:35:09;;;;;;;;;;;;;;;;;;5110021;28;1153;-66
2023/09/22 10:37:35;;;;;;;;;;;;;;;;;;5111946;28;826;-65
2023/09/22 10:40:19;;;;;;;;;;;;;;;;;;5112126;28;1901;-66
2023/09/22 10:42:49;;;;;;;;;;;;;;;;;;5111289;28;883;-66
2023/09/22 10:45:17;;;;;;;;;;;;;;;;;;5111027;28;844;-66
2023/09/22 10:47:46;;;;;;;;;;;;;;;;;;5111832;28;754;-66
2023/09/22 10:50:12;;;;;;;;;;;;;;;;;;5112534;28;805;-66
2023/09/22 10:52:37;;;;;;;;;;;;;;;;;;5094468;28;1393;-66
2023/09/22 10:55:05;;;;;;;;;;;;;;;;;;5093704;28;1253;-65
2023/09/22 10:57:30;;;;;;;;;;;;;;;;;;5111771;28;873;-66
2023/09/22 10:59:56;;;;;;;;;;;;;;;;;;5112459;28;1906;-66
2023/09/22 11:02:26;;;;;;;;;;;;;;;;;;5094424;28;931;-65
2023/09/22 11:04:52;;;;;;;;;;;;;;;;;;5112303;28;942;-65
2023/09/22 11:07:33;;;;;;;;;;;;;;;;;;5111216;28;833;-66
2023/09/22 11:09:59;;;;;;;;;;;;;;;;;;5111374;28;813;-66
2023/09/22 11:12:26;;;;;;;;;;;;;;;;;;5111921;28;894;-66
2023/09/22 11:14:53;;;;;;;;;;;;;;;;;;5112928;28;891;-67
2023/09/22 11:17:18;;;;;;;;;;;;;;;;;;5111767;28;844;-66
2023/09/22 11:19:53;;;;;;;;;;;;;;;;;;5112012;28;1893;-67
2023/09/22 11:22:19;;;;;;;;;;;;;;;;;;5111897;28;1542;-67
2023/09/22 11:24:45;;;;;;;;;;;;;;;;;;5112475;28;823;-66
2023/09/22 11:27:11;;;;;;;;;;;;;;;;;;5111789;28;894;-64
2023/09/22 11:29:36;;;;;;;;;;;;;;;;;;5111879;28;1042;-67
2023/09/22 11:32:03;;;;;;;;;;;;;;;;;;5111972;28;804;-66
2023/09/22 11:34:28;;;;;;;;;;;;;;;;;;5110584;28;1409;-66
2023/09/22 11:36:55;;;;;;;;;;;;;;;;;;5112555;28;836;-67
2023/09/22 11:39:25;;;;;;;;;;;;;;;;;;5111326;28;1967;-65
2023/09/22 11:41:50;;;;;;;;;;;;;;;;;;5114255;28;1218;-66
2023/09/22 11:44:16;;;;;;;;;;;;;;;;;;5114802;28;844;-66
2023/09/22 11:46:45;;;;;;;;;;;;;;;;;;5114392;28;1149;-65
2023/09/22 11:49:12;;;;;;;;;;;;;;;;;;5096437;28;1636;-65
2023/09/22 11:51:55;;;;;;;;;;;;;;;;;;5112833;28;855;-66
2023/09/22 11:54:23;;;;;;;;;;;;;;;;;;5114386;28;922;-65
2023/09/22 11:56:48;;;;;;;;;;;;;;;;;;5114761;27;963;-66
2023/09/22 11:59:20;;;;;;;;;;;;;;;;;;5114166;28;1947;-65
2023/09/22 12:01:46;;;;;;;;;;;;;;;;;;5114977;28;820;-66
2023/09/22 12:04:12;;;;;;;;;;;;;;;;;;5114581;28;861;-65
2023/09/22 12:06:40;;;;;;;;;;;;;;;;;;5114239;28;836;-65
2023/09/22 12:09:06;;;;;;;;;;;;;;;;;;5114900;28;832;-65
2023/09/22 12:11:31;;;;;;;;;;;;;;;;;;5112716;28;1193;-65
2023/09/22 12:13:56;;;;;;;;;;;;;;;;;;5114519;28;841;-65
2023/09/22 12:16:22;;;;;;;;;;;;;;;;;;5095249;28;1489;-65
2023/09/22 12:18:48;;;;;;;;;;;;;;;;;;5114380;28;1886;-66
2023/09/22 12:21:13;;;;;;;;;;;;;;;;;;5113544;28;1076;-65
2023/09/22 12:23:39;;;;;;;;;;;;;;;;;;5113104;28;829;-66
2023/09/22 12:26:05;;;;;;;;;;;;;;;;;;5113986;28;991;-65
2023/09/22 12:28:30;;;;;;;;;;;;;;;;;;5114097;27;922;-65
2023/09/22 12:30:55;;;;;;;;;;;;;;;;;;5114220;28;959;-66
2023/09/22 12:33:21;;;;;;;;;;;;;;;;;;5111985;28;936;-66
2023/09/22 12:35:55;;;;;;;;;;;;;;;;;;5095208;28;929;-66
2023/09/22 12:38:26;;;;;;;;;;;;;;;;;;5111856;28;1898;-66
2023/09/22 12:40:52;;;;;;;;;;;;;;;;;;5112961;27;1341;-66
2023/09/22 12:43:17;;;;;;;;;;;;;;;;;;5112687;28;873;-65
2023/09/22 12:45:43;;;;;;;;;;;;;;;;;;5114050;27;892;-65
2023/09/22 12:48:08;;;;;;;;;;;;;;;;;;5110961;28;1166;-66
2023/09/22 12:50:34;;;;;;;;;;;;;;;;;;5100139;28;1190;-66
2023/09/22 12:52:59;;;;;;;;;;;;;;;;;;5097831;28;1233;-66
2023/09/22 12:55:25;;;;;;;;;;;;;;;;;;5089259;28;1143;-65
2023/09/22 12:57:50;;;;;;;;;;;;;;;;;;5107312;28;1969;-66
2023/09/22 13:00:15;;;;;;;;;;;;;;;;;;5113928;28;899;-65
2023/09/22 13:02:41;;;;;;;;;;;;;;;;;;5114844;28;812;-65
2023/09/22 13:05:06;;;;;;;;;;;;;;;;;;5114987;28;1377;-65
2023/09/22 13:07:32;;;;;;;;;;;;;;;;;;5112977;28;1410;-65
2023/09/22 13:10:08;;;;;;;;;;;;;;;;;;5114713;28;903;-65
2023/09/22 13:12:35;;;;;;;;;;;;;;;;;;5114456;28;1684;-66
2023/09/22 13:15:00;;;;;;;;;;;;;;;;;;5114825;28;923;-65
2023/09/22 13:17:26;;;;;;;;;;;;;;;;;;5111960;28;1416;-66
2023/09/22 13:19:51;;;;;;;;;;;;;;;;;;5111496;28;1948;-66
2023/09/22 13:22:17;;;;;;;;;;;;;;;;;;5112195;28;1222;-65
2023/09/22 13:24:44;;;;;;;;;;;;;;;;;;5112102;28;962;-65
2023/09/22 13:27:10;;;;;;;;;;;;;;;;;;5113401;28;882;-65
2023/09/22 13:29:35;;;;;;;;;;;;;;;;;;5111585;28;911;-65
2023/09/22 13:32:00;;;;;;;;;;;;;;;;;;5111382;28;1219;-66
2023/09/22 13:34:28;;;;;;;;;;;;;;;;;;5093977;28;903;-66
2023/09/22 13:36:53;;;;;;;;;;;;;;;;;;5112861;28;851;-66
2023/09/22 13:39:18;;;;;;;;;;;;;;;;;;5112126;28;1917;-66
2023/09/22 13:41:44;;;;;;;;;;;;;;;;;;5111475;28;899;-65
2023/09/22 13:44:10;;;;;;;;;;;;;;;;;;5112845;28;840;-66
2023/09/22 13:46:35;;;;;;;;;;;;;;;;;;5110343;28;885;-65
2023/09/22 13:49:00;;;;;;;;;;;;;;;;;;5111444;28;832;-66
2023/09/22 13:51:31;;;;;;;;;;;;;;;;;;5110816;28;934;-65
2023/09/22 13:53:56;;;;;;;;;;;;;;;;;;5112506;28;844;-65
2023/09/22 13:56:22;;;;;;;;;;;;;;;;;;5111534;28;868;-65
2023/09/22 13:58:50;;;;;;;;;;;;;;;;;;5093643;28;1901;-65
2023/09/22 14:01:15;;;;;;;;;;;;;;;;;;5111198;28;915;-65
2023/09/22 14:03:41;;;;;;;;;;;;;;;;;;5110841;28;904;-65
2023/09/22 14:06:11;;;;;;;;;;;;;;;;;;5112081;28;923;-65
2023/09/22 14:08:37;;;;;;;;;;;;;;;;;;5111456;28;923;-65
2023/09/22 14:11:02;;;;;;;;;;;;;;;;;;5111750;28;872;-65
2023/09/22 14:13:28;;;;;;;;;;;;;;;;;;5111030;28;828;-65
2023/09/22 14:15:53;;;;;;;;;;;;;;;;;;5111957;28;820;-66
2023/09/22 14:18:18;;;;;;;;;;;;;;;;;;5111708;28;1910;-65
2023/09/22 14:20:44;;;;;;;;;;;;;;;;;;5111975;28;1423;-66
2023/09/22 14:23:09;;;;;;;;;;;;;;;;;;5110447;28;1169;-66
2023/09/22 14:25:37;;;;;;;;;;;;;;;;;;5111841;28;904;-66
2023/09/22 14:28:05;;;;;;;;;;;;;;;;;;5111293;28;1491;-66
2023/09/22 14:30:30;;;;;;;;;;;;;;;;;;5111402;28;867;-66
2023/09/22 14:32:58;;;;;;;;;;;;;;;;;;5112501;28;827;-65
2023/09/22 14:35:26;;;;;;;;;;;;;;;;;;5111643;28;964;-65
2023/09/22 14:37:51;;;;;;;;;;;;;;;;;;5111865;28;904;-67
2023/09/22 14:40:16;;;;;;;;;;;;;;;;;;5111488;28;1909;-66
2023/09/22 14:42:42;;;;;;;;;;;;;;;;;;5111256;28;912;-65
2023/09/22 14:45:07;;;;;;;;;;;;;;;;;;5111506;28;887;-65
2023/09/22 14:47:32;;;;;;;;;;;;;;;;;;5110625;28;916;-65
2023/09/22 14:49:58;;;;;;;;;;;;;;;;;;5112331;28;1114;-65
2023/09/22 14:52:23;;;;;;;;;;;;;;;;;;5111920;28;844;-65
2023/09/22 14:54:48;;;;;;;;;;;;;;;;;;5112262;28;888;-65
2023/09/22 14:57:14;;;;;;;;;;;;;;;;;;5111627;28;1054;-66
2023/09/22 14:59:39;;;;;;;;;;;;;;;;;;5111639;28;1897;-65
2023/09/22 15:02:04;;;;;;;;;;;;;;;;;;5110796;28;1164;-65
2023/09/22 15:04:29;;;;;;;;;;;;;;;;;;5111293;28;903;-65
2023/09/22 15:06:55;;;;;;;;;;;;;;;;;;5111603;28;832;-66
2023/09/22 15:09:20;;;;;;;;;;;;;;;;;;5109104;28;1195;-66
2023/09/22 15:11:45;;;;;;;;;;;;;;;;;;5111204;28;1053;-66
2023/09/22 15:14:10;;;;;;;;;;;;;;;;;;5112236;28;845;-66
2023/09/22 15:16:36;;;;;;;;;;;;;;;;;;5114833;28;916;-66
2023/09/22 15:19:02;;;;;;;;;;;;;;;;;;5113657;28;1893;-65
2023/09/22 15:21:27;;;;;;;;;;;;;;;;;;5114428;28;1187;-65
2023/09/22 15:23:53;;;;;;;;;;;;;;;;;;5115297;28;930;-65
2023/09/22 15:26:21;;;;;;;;;;;;;;;;;;5113645;28;821;-65
2023/09/22 15:28:46;;;;;;;;;;;;;;;;;;5115190;28;954;-66
2023/09/22 15:31:12;;;;;;;;;;;;;;;;;;5115415;28;828;-65
2023/09/22 15:33:37;;;;;;;;;;;;;;;;;;5114487;28;836;-66
2023/09/22 15:36:03;;;;;;;;;;;;;;;;;;5115091;28;828;-66
2023/09/22 15:38:29;;;;;;;;;;;;;;;;;;5114335;28;1985;-66
2023/09/22 15:40:59;;;;;;;;;;;;;;;;;;5115377;28;829;-66
2023/09/22 15:43:25;;;;;;;;;;;;;;;;;;5114739;28;871;-65
2023/09/22 15:45:50;;;;;;;;;;;;;;;;;;5115339;28;876;-65
2023/09/22 15:48:16;;;;;;;;;;;;;;;;;;5115333;28;774;-66
2023/09/22 15:50:41;;;;;;;;;;;;;;;;;;5113552;28;1175;-65
2023/09/22 15:53:06;;;;;;;;;;;;;;;;;;5113750;28;1178;-66
2023/09/22 15:55:32;;;;;;;;;;;;;;;;;;5114680;28;824;-65
2023/09/22 15:58:00;;;;;;;;;;;;;;;;;;5115319;28;1955;-66
2023/09/22 16:00:25;;;;;;;;;;;;;;;;;;5114251;28;903;-66
2023/09/22 16:02:51;;;;;;;;;;;;;;;;;;5115666;28;745;-66
2023/09/22 16:05:17;;;;;;;;;;;;;;;;;;5114311;28;919;-66
2023/09/22 16:07:43;;;;;;;;;;;;;;;;;;5114626;28;844;-66
2023/09/22 16:10:08;;;;;;;;;;;;;;;;;;5096003;28;1180;-66
2023/09/22 16:12:33;;;;;;;;;;;;;;;;;;5113796;28;923;-66
2023/09/22 16:14:59;;;;;;;;;;;;;;;;;;5114434;28;848;-67
2023/09/22 16:17:26;;;;;;;;;;;;;;;;;;5112539;28;868;-66
2023/09/22 16:19:53;;;;;;;;;;;;;;;;;;5112943;28;1902;-66
2023/09/22 16:22:18;;;;;;;;;;;;;;;;;;5113448;28;1080;-67
2023/09/22 16:24:44;;;;;;;;;;;;;;;;;;5113854;28;884;-66
2023/09/22 16:27:09;;;;;;;;;;;;;;;;;;5113963;28;869;-66
2023/09/22 16:29:35;;;;;;;;;;;;;;;;;;5114044;28;840;-66
2023/09/22 16:32:00;;;;;;;;;;;;;;;;;;5114729;28;907;-67
2023/09/22 16:34:25;;;;;;;;;;;;;;;;;;5114218;28;995;-66
2023/09/22 16:36:50;;;;;;;;;;;;;;;;;;5113190;28;1293;-66
2023/09/22 16:39:16;;;;;;;;;;;;;;;;;;5112513;28;1959;-66
2023/09/22 16:41:41;;;;;;;;;;;;;;;;;;5114528;28;907;-66
2023/09/22 16:44:06;;;;;;;;;;;;;;;;;;5112815;28;820;-65
2023/09/22 16:46:32;;;;;;;;;;;;;;;;;;5111673;28;920;-65
2023/09/22 16:48:57;;;;;;;;;;;;;;;;;;5113206;28;1190;-65
2023/09/22 16:51:23;;;;;;;;;;;;;;;;;;5106399;28;1159;-65
2023/09/22 16:53:48;;;;;;;;;;;;;;;;;;5109590;28;1218;-66
2023/09/22 16:56:13;;;;;;;;;;;;;;;;;;5108415;28;1076;-64
2023/09/22 16:58:40;;;;;;;;;;;;;;;;;;5111925;28;1969;-66
2023/09/22 17:01:06;;;;;;;;;;;;;;;;;;5114017;28;839;-66
2023/09/22 17:03:31;;;;;;;;;;;;;;;;;;5113752;28;880;-65
2023/09/22 17:05:57;;;;;;;;;;;;;;;;;;5113614;28;1039;-65
2023/09/22 17:08:24;;;;;;;;;;;;;;;;;;5113609;27;1004;-66